TimeCST,TemperatureF,Dew PointF,Humidity,Sea Level PressureIn,VisibilityMPH,Wind Direction,Wind SpeedMPH,Gust SpeedMPH,PrecipitationIn,Events,Conditions,WindDirDegrees,DateUTC
12:53 AM,37.0,23.0,57,30.29,10.0,North,12.7,-,N/A,,Mostly Cloudy,350,2013-02-15 06:53:00
1:53 AM,35.1,21.9,59,30.31,10.0,NNW,10.4,-,N/A,,Clear,340,2013-02-15 07:53:00
2:53 AM,32.0,21.0,64,30.33,10.0,NNW,12.7,-,N/A,,Clear,340,2013-02-15 08:53:00
3:53 AM,28.9,21.0,72,30.35,10.0,North,9.2,-,N/A,,Clear,350,2013-02-15 09:53:00
4:53 AM,27.0,19.9,75,30.36,10.0,North,9.2,-,N/A,,Clear,360,2013-02-15 10:53:00
5:53 AM,27.0,19.9,75,30.39,10.0,NNW,8.1,-,N/A,,Clear,340,2013-02-15 11:53:00
6:53 AM,26.1,19.0,75,30.41,10.0,North,10.4,-,N/A,,Clear,350,2013-02-15 12:53:00
7:53 AM,26.1,19.0,75,30.42,10.0,North,10.4,-,N/A,,Clear,360,2013-02-15 13:53:00
8:53 AM,27.0,17.1,66,30.45,10.0,North,11.5,-,N/A,,Clear,360,2013-02-15 14:53:00
9:53 AM,30.0,15.1,54,30.47,10.0,North,8.1,-,N/A,,Clear,360,2013-02-15 15:53:00
10:53 AM,35.1,14.0,42,30.46,10.0,North,10.4,-,N/A,,Clear,10,2013-02-15 16:53:00
11:53 AM,36.0,14.0,41,30.44,10.0,North,11.5,-,N/A,,Clear,10,2013-02-15 17:53:00
12:53 PM,39.9,14.0,35,30.40,10.0,NNE,9.2,17.3,N/A,,Clear,30,2013-02-15 18:53:00
1:53 PM,42.1,12.9,31,30.38,10.0,NNW,6.9,-,N/A,,Clear,340,2013-02-15 19:53:00
2:53 PM,42.1,12.9,31,30.37,10.0,North,8.1,-,N/A,,Clear,350,2013-02-15 20:53:00
3:53 PM,42.1,12.9,31,30.36,10.0,NW,10.4,20.7,N/A,,Partly Cloudy,320,2013-02-15 21:53:00
4:53 PM,42.1,15.1,34,30.36,10.0,NNW,10.4,17.3,N/A,,Partly Cloudy,340,2013-02-15 22:53:00
5:53 PM,39.9,15.1,36,30.35,10.0,NW,6.9,-,N/A,,Partly Cloudy,320,2013-02-15 23:53:00
6:53 PM,37.9,17.1,43,30.35,10.0,Calm,Calm,-,N/A,,Clear,0,2013-02-16 00:53:00
7:53 PM,32.0,21.0,64,30.36,10.0,Calm,Calm,-,N/A,,Overcast,0,2013-02-16 01:53:00
8:53 PM,35.1,19.0,52,30.35,10.0,SW,3.5,-,N/A,,Scattered Clouds,230,2013-02-16 02:53:00
9:53 PM,36.0,24.1,62,30.37,10.0,West,9.2,-,N/A,,Overcast,280,2013-02-16 03:53:00
10:53 PM,34.0,28.9,82,30.36,10.0,West,13.8,20.7,N/A,,Partly Cloudy,280,2013-02-16 04:53:00
11:53 PM,34.0,28.0,79,30.38,10.0,NNW,11.5,19.6,N/A,,Mostly Cloudy,330,2013-02-16 05:53:00